Time;durP1;ratioP1;P1;durP2;ratioP2;P2;SDS_P1;SDS_P2;PMS_P1;PMS_P2;Temp;Humidity;BMP_temperature;BMP_pressure;BME280_temperature;BME280_humidity;BME280_pressure;Samples;Min_cycle;Max_cycle;Signal;HPM_P1;HPM_P2
2023/10/29 00:00:23;;;;;;;;;0.00;0.00;;;;;16.55;100.00;99048.09;4974996;28;60492;-67
2023/10/29 00:02:48;;;;;;;;;0.00;0.00;;;;;16.53;100.00;99051.75;4975263;28;45454;-67
2023/10/29 00:05:14;;;;;;;;;0.00;0.00;;;;;16.53;100.00;99044.63;4976466;28;45598;-69
2023/10/29 00:07:39;;;;;;;;;1.00;0.00;;;;;16.50;100.00;99045.59;4974262;28;73357;-67
2023/10/29 00:10:07;;;;;;;;;0.00;0.00;;;;;16.50;100.00;99034.09;4963958;28;45375;-68
2023/10/29 00:12:32;;;;;;;;;0.00;0.00;;;;;16.52;100.00;99026.91;4975721;28;45379;-66
2023/10/29 00:14:58;;;;;;;;;0.00;0.00;;;;;16.54;100.00;99038.38;4955618;28;45499;-68
2023/10/29 00:17:23;;;;;;;;;0.00;0.00;;;;;16.58;100.00;99029.31;4956126;28;75376;-67
2023/10/29 00:19:50;;;;;;;;;0.00;0.00;;;;;16.63;100.00;99034.44;4970216;28;69273;-68
2023/10/29 00:22:16;;;;;;;;;1.00;0.00;;;;;16.61;100.00;99025.63;4972771;28;47010;-67
2023/10/29 00:24:41;;;;;;;;;0.00;0.00;;;;;16.59;100.00;99024.84;4973090;28;45419;-68
2023/10/29 00:27:06;;;;;;;;;1.00;0.00;;;;;16.60;100.00;99024.78;4972537;28;45848;-67
2023/10/29 00:29:32;;;;;;;;;0.00;0.00;;;;;16.65;100.00;99025.44;4971619;28;70452;-67
2023/10/29 00:31:57;;;;;;;;;0.00;0.00;;;;;16.67;100.00;99034.25;4974070;28;66423;-68
2023/10/29 00:34:23;;;;;;;;;0.00;0.00;;;;;16.66;100.00;99024.50;4975055;28;45490;-68
2023/10/29 00:36:48;;;;;;;;;2.33;0.00;;;;;16.67;100.00;99020.03;4959720;28;70760;-66
2023/10/29 00:39:13;;;;;;;;;1.00;0.00;;;;;16.65;100.00;99014.78;4974796;28;67475;-67
2023/10/29 00:41:41;;;;;;;;;0.00;0.00;;;;;16.67;100.00;99006.72;4977776;28;57874;-67
2023/10/29 00:44:06;;;;;;;;;0.00;0.00;;;;;16.73;100.00;98996.72;4979379;28;45513;-68
2023/10/29 00:46:32;;;;;;;;;0.00;0.00;;;;;16.73;100.00;98994.06;4978516;28;46310;-68
2023/10/29 00:48:58;;;;;;;;;0.00;0.00;;;;;16.73;100.00;98982.53;4966582;28;67899;-68
2023/10/29 00:51:23;;;;;;;;;0.00;0.00;;;;;16.76;100.00;98995.69;4964464;28;45421;-67
2023/10/29 00:53:49;;;;;;;;;1.00;1.00;;;;;16.72;100.00;99000.31;4978471;28;45482;-67
2023/10/29 00:56:17;;;;;;;;;2.00;0.00;;;;;16.81;100.00;98991.03;4979073;28;45591;-67
2023/10/29 00:58:42;;;;;;;;;1.00;0.00;;;;;16.79;100.00;99005.38;4978805;28;45470;-68
2023/10/29 01:01:07;;;;;;;;;0.00;0.00;;;;;16.75;100.00;99008.16;4978643;28;46488;-68
2023/10/29 01:03:33;;;;;;;;;0.00;0.00;;;;;16.74;100.00;99017.09;4978176;28;58023;-68
2023/10/29 01:05:58;;;;;;;;;0.00;0.00;;;;;16.76;100.00;99014.34;4977127;28;69896;-67
2023/10/29 01:08:26;;;;;;;;;2.00;0.00;;;;;16.77;100.00;99019.59;4977300;28;74343;-68
2023/10/29 01:10:52;;;;;;;;;2.33;0.00;;;;;16.80;100.00;99036.44;4966325;28;68318;-68
2023/10/29 01:13:18;;;;;;;;;0.00;0.00;;;;;16.80;100.00;99037.28;4978287;28;60032;-69
2023/10/29 01:15:43;;;;;;;;;0.00;0.00;;;;;16.81;100.00;99040.81;4977902;28;46578;-67
2023/10/29 01:18:09;;;;;;;;;0.00;0.00;;;;;16.82;100.00;99034.53;4976722;28;45479;-67
2023/10/29 01:20:34;;;;;;;;;0.33;0.00;;;;;16.92;100.00;99046.53;4960163;28;66787;-69
2023/10/29 01:23:00;;;;;;;;;0.00;0.00;;;;;16.90;100.00;99027.09;4977206;28;45389;-67
2023/10/29 01:25:25;;;;;;;;;0.00;0.00;;;;;16.89;100.00;99042.22;4960609;28;46463;-69
2023/10/29 01:27:51;;;;;;;;;1.33;0.00;;;;;16.87;100.00;99033.41;4977430;28;57411;-69
2023/10/29 01:30:17;;;;;;;;;1.00;0.00;;;;;16.88;100.00;99039.59;4978608;28;45552;-68
2023/10/29 01:32:43;;;;;;;;;2.00;0.33;;;;;16.96;100.00;99048.16;4977350;28;45428;-68
2023/10/29 01:35:08;;;;;;;;;0.00;0.00;;;;;16.95;100.00;99049.09;4977658;28;45399;-67
2023/10/29 01:37:33;;;;;;;;;4.00;0.00;;;;;16.97;100.00;99060.53;4978256;28;58343;-67
2023/10/29 01:39:59;;;;;;;;;2.00;0.00;;;;;16.92;100.00;99065.22;4977120;28;64225;-68
2023/10/29 01:42:26;;;;;;;;;1.00;1.00;;;;;16.91;100.00;99060.81;4961101;28;45447;-67
2023/10/29 01:44:51;;;;;;;;;1.00;1.00;;;;;16.89;100.00;99074.22;4978316;28;45700;-68
2023/10/29 01:47:17;;;;;;;;;1.33;0.33;;;;;16.89;100.00;99073.34;4960695;28;45459;-67
2023/10/29 01:49:42;;;;;;;;;0.33;0.33;;;;;16.91;100.00;99076.81;4960143;28;68849;-69
2023/10/29 01:52:07;;;;;;;;;1.00;1.00;;;;;16.88;100.00;99031.59;4977198;28;45337;-68
2023/10/29 01:54:33;;;;;;;;;1.00;1.00;;;;;16.93;100.00;99073.13;4977980;28;75018;-66
2023/10/29 01:56:58;;;;;;;;;0.00;0.00;;;;;16.95;100.00;99073.09;4960467;28;54254;-67
2023/10/29 01:59:23;;;;;;;;;4.00;1.00;;;;;17.01;100.00;99086.16;4978456;28;45467;-69
2023/10/29 02:01:49;;;;;;;;;0.00;0.00;;;;;17.01;100.00;99087.00;4977547;28;66605;-68
2023/10/29 02:04:14;;;;;;;;;2.00;0.00;;;;;17.04;100.00;99075.34;4977941;28;46454;-67
2023/10/29 02:06:40;;;;;;;;;1.33;1.00;;;;;17.03;100.00;99073.59;4976843;28;73178;-69
2023/10/29 02:09:06;;;;;;;;;1.00;0.00;;;;;17.06;100.00;99084.16;4977378;28;64473;-67
2023/10/29 02:11:31;;;;;;;;;1.00;1.00;;;;;17.05;100.00;99089.56;4977848;28;45266;-68
2023/10/29 02:13:56;;;;;;;;;0.67;0.00;;;;;17.07;100.00;99083.22;4976182;28;74340;-67
2023/10/29 02:16:23;;;;;;;;;0.67;0.67;;;;;17.06;100.00;99096.63;4960126;28;45237;-68
2023/10/29 02:18:48;;;;;;;;;1.00;0.00;;;;;17.06;100.00;99089.47;4977804;28;45399;-67
2023/10/29 02:21:13;;;;;;;;;1.00;0.00;;;;;17.07;100.00;99091.22;4978509;28;45261;-67
2023/10/29 02:23:39;;;;;;;;;2.00;0.00;;;;;17.06;100.00;99110.81;4976532;28;74952;-68
2023/10/29 02:26:04;;;;;;;;;1.33;0.00;;;;;17.04;100.00;99115.34;4977020;28;69283;-70
2023/10/29 02:28:29;;;;;;;;;4.33;0.00;;;;;17.01;100.00;99100.34;4976780;28;66983;-67
2023/10/29 02:30:55;;;;;;;;;1.67;0.00;;;;;16.98;100.00;99111.13;4976735;28;66938;-68
2023/10/29 02:33:20;;;;;;;;;0.00;0.00;;;;;16.97;100.00;99121.88;4976985;28;70314;-67
2023/10/29 02:35:46;;;;;;;;;2.00;0.00;;;;;16.99;100.00;99126.22;4976857;28;69440;-68
2023/10/29 02:38:11;;;;;;;;;1.00;1.00;;;;;16.96;100.00;99134.34;4977423;28;45396;-67
2023/10/29 02:40:37;;;;;;;;;0.67;0.00;;;;;16.89;100.00;99143.53;4977677;28;45237;-67
2023/10/29 02:43:03;;;;;;;;;1.00;0.00;;;;;16.89;100.00;99158.66;4959954;28;46646;-68
2023/10/29 02:45:29;;;;;;;;;2.33;0.00;;;;;16.88;100.00;99144.44;4958689;28;45585;-68
2023/10/29 02:47:55;;;;;;;;;1.00;0.00;;;;;16.86;100.00;99156.97;4976955;28;45871;-68
2023/10/29 02:50:20;;;;;;;;;0.33;0.00;;;;;16.85;100.00;99160.59;4976683;28;45465;-68
2023/10/29 02:52:46;;;;;;;;;3.00;0.00;;;;;16.86;100.00;99164.13;4973250;28;46587;-68
2023/10/29 02:55:11;;;;;;;;;2.00;0.00;;;;;16.87;100.00;99184.50;4975566;28;71376;-68
2023/10/29 02:57:36;;;;;;;;;6.00;1.00;;;;;16.85;100.00;99171.25;4976297;28;66166;-68
2023/10/29 03:00:04;;;;;;;;;3.00;0.00;;;;;16.84;100.00;99164.19;4977333;28;45447;-68
2023/10/29 03:02:29;;;;;;;;;0.00;0.00;;;;;16.83;100.00;99175.78;4972081;28;46601;-68
2023/10/29 03:04:54;;;;;;;;;0.00;0.00;;;;;16.83;100.00;99169.56;4975826;28;73048;-68
2023/10/29 03:07:20;;;;;;;;;4.33;0.00;;;;;16.82;100.00;99162.50;4976711;28;45463;-69
2023/10/29 03:09:45;;;;;;;;;3.00;0.00;;;;;16.78;100.00;99164.44;4976393;28;66228;-69
2023/10/29 03:12:12;;;;;;;;;2.00;0.67;;;;;16.77;100.00;99163.53;4975596;28;74932;-67
2023/10/29 03:14:37;;;;;;;;;3.00;0.00;;;;;16.77;100.00;99179.53;4976781;28;45404;-67
2023/10/29 03:17:02;;;;;;;;;4.00;1.00;;;;;16.74;100.00;99161.03;4958677;28;45486;-68
2023/10/29 03:19:28;;;;;;;;;3.00;0.00;;;;;16.72;100.00;99168.22;4977131;28;45237;-67
2023/10/29 03:21:53;;;;;;;;;2.00;1.00;;;;;16.70;100.00;99162.03;4976609;28;46253;-67
2023/10/29 03:24:18;;;;;;;;;4.00;1.00;;;;;16.66;100.00;99155.09;4975398;28;71964;-67
2023/10/29 03:26:44;;;;;;;;;0.00;0.00;;;;;16.67;100.00;99164.84;4976660;28;45323;-68
2023/10/29 03:29:09;;;;;;;;;0.67;0.67;;;;;16.64;100.00;99151.63;4976430;28;45321;-67
2023/10/29 03:31:35;;;;;;;;;0.00;0.00;;;;;16.62;100.00;99150.84;4958448;28;65716;-68
2023/10/29 03:34:00;;;;;;;;;2.67;1.00;;;;;16.62;100.00;99163.28;4973669;28;47046;-67
2023/10/29 03:36:26;;;;;;;;;1.33;0.00;;;;;16.59;100.00;99166.94;4975360;28;45343;-68
2023/10/29 03:38:51;;;;;;;;;2.00;0.00;;;;;16.56;100.00;99167.03;4974538;28;62269;-67
2023/10/29 03:41:21;;;;;;;;;1.67;0.33;;;;;16.59;100.00;99171.41;4958068;28;74530;-67
2023/10/29 03:43:47;;;;;;;;;2.00;0.00;;;;;16.58;100.00;99175.88;4959006;28;45448;-66
2023/10/29 03:46:12;;;;;;;;;3.00;1.00;;;;;16.55;100.00;99173.31;4976180;28;45392;-69
2023/10/29 03:48:42;;;;;;;;;3.00;1.00;;;;;16.53;100.00;99169.84;4955614;28;45535;-68
2023/10/29 03:51:07;;;;;;;;;3.00;1.00;;;;;16.51;100.00;99174.34;4975802;28;46795;-67
2023/10/29 03:53:32;;;;;;;;;7.33;0.00;;;;;16.49;100.00;99171.75;4957796;28;45444;-67
2023/10/29 03:56:00;;;;;;;;;4.33;0.67;;;;;16.54;100.00;99170.72;4975352;28;69026;-69
2023/10/29 03:58:26;;;;;;;;;1.67;0.00;;;;;16.56;100.00;99174.19;4976437;28;45503;-68
2023/10/29 04:00:51;;;;;;;;;3.00;0.00;;;;;16.54;100.00;99171.59;4976271;28;46222;-68
2023/10/29 04:03:17;;;;;;;;;5.33;0.00;;;;;16.58;100.00;99169.69;4975296;28;45394;-67
2023/10/29 04:05:42;;;;;;;;;2.00;0.00;;;;;16.52;100.00;99162.78;4975545;28;67842;-69
2023/10/29 04:08:07;;;;;;;;;2.67;1.67;;;;;16.49;100.00;99181.56;4975381;28;45419;-67
2023/10/29 04:10:33;;;;;;;;;2.00;1.00;;;;;16.48;100.00;99177.16;4969063;28;46590;-68
2023/10/29 04:12:58;;;;;;;;;3.00;0.00;;;;;16.49;100.00;99174.44;4975031;28;71414;-68
2023/10/29 04:15:24;;;;;;;;;2.00;1.00;;;;;16.48;100.00;99177.16;4975693;28;45462;-67
2023/10/29 04:17:49;;;;;;;;;4.00;1.00;;;;;16.47;100.00;99164.78;4974818;28;45388;-67
2023/10/29 04:20:15;;;;;;;;;1.00;1.00;;;;;16.46;100.00;99182.56;4975843;28;45969;-67
2023/10/29 04:22:42;;;;;;;;;2.67;1.00;;;;;16.44;100.00;99183.53;4958004;28;45468;-67
2023/10/29 04:25:07;;;;;;;;;3.67;1.00;;;;;16.43;100.00;99187.13;4975623;28;45484;-68
2023/10/29 04:27:33;;;;;;;;;3.67;0.00;;;;;16.41;100.00;99195.19;4958473;28;45273;-67
2023/10/29 04:29:58;;;;;;;;;2.00;1.00;;;;;16.45;100.00;99207.44;4974595;28;71843;-67
2023/10/29 04:32:24;;;;;;;;;4.33;0.00;;;;;16.42;100.00;99217.38;4975435;28;45424;-67
2023/10/29 04:34:49;;;;;;;;;2.00;1.00;;;;;16.42;100.00;99214.69;4976023;28;45312;-68
2023/10/29 04:37:15;;;;;;;;;4.67;1.00;;;;;16.41;100.00;99215.63;4975466;28;45543;-68
2023/10/29 04:39:42;;;;;;;;;5.00;0.33;;;;;16.42;100.00;99196.91;4974646;28;75999;-69
2023/10/29 04:42:07;;;;;;;;;3.67;0.00;;;;;16.42;100.00;99206.72;4976147;28;45419;-68
2023/10/29 04:44:33;;;;;;;;;2.33;1.00;;;;;16.41;100.00;99205.84;4975917;28;45451;-69
2023/10/29 04:46:59;;;;;;;;;3.00;0.00;;;;;16.41;100.00;99211.19;4975779;28;45454;-67
2023/10/29 04:49:24;;;;;;;;;1.00;0.33;;;;;16.39;100.00;99214.81;4958770;28;46408;-68
2023/10/29 04:51:50;;;;;;;;;4.00;0.33;;;;;16.38;100.00;99211.28;4974754;28;70959;-68
2023/10/29 04:54:15;;;;;;;;;2.00;0.67;;;;;16.38;100.00;99202.41;4974665;28;66814;-68
2023/10/29 04:56:40;;;;;;;;;0.00;0.00;;;;;16.35;100.00;99198.09;4975331;28;45474;-67
2023/10/29 04:59:06;;;;;;;;;1.67;1.00;;;;;16.32;100.00;99200.00;4974323;28;73512;-68
2023/10/29 05:01:31;;;;;;;;;2.67;0.33;;;;;16.30;100.00;99199.16;4975095;28;58272;-68
2023/10/29 05:03:56;;;;;;;;;1.67;0.00;;;;;16.30;100.00;99208.06;4975217;28;60232;-69
2023/10/29 05:06:22;;;;;;;;;1.67;0.00;;;;;16.30;100.00;99201.84;4975390;28;45477;-68
2023/10/29 05:08:49;;;;;;;;;2.67;1.00;;;;;16.30;100.00;99202.72;4957310;28;53707;-69
2023/10/29 05:11:14;;;;;;;;;1.67;1.00;;;;;16.29;100.00;99205.44;4974217;28;45627;-68
2023/10/29 05:13:40;;;;;;;;;8.33;1.33;;;;;16.29;100.00;99205.44;4975648;28;45368;-69
2023/10/29 05:16:06;;;;;;;;;4.00;1.00;;;;;16.28;100.00;99209.03;4975427;28;45562;-66
2023/10/29 05:18:31;;;;;;;;;6.00;0.00;;;;;16.26;100.00;99221.53;4958148;28;46808;-68
2023/10/29 05:20:57;;;;;;;;;1.00;1.00;;;;;16.22;100.00;99210.13;4974751;28;68545;-69
2023/10/29 05:23:22;;;;;;;;;3.67;1.00;;;;;16.20;100.00;99223.50;4974042;28;66595;-68
2023/10/29 05:25:47;;;;;;;;;2.00;0.33;;;;;16.17;100.00;99215.63;4975178;28;63827;-67
2023/10/29 05:28:13;;;;;;;;;2.00;1.00;;;;;16.16;100.00;99202.38;4977428;28;72636;-68
2023/10/29 05:30:39;;;;;;;;;2.67;0.33;;;;;16.13;100.00;99202.47;4978092;28;45297;-68
2023/10/29 05:33:04;;;;;;;;;2.33;1.00;;;;;16.15;100.00;99204.19;4978839;28;45472;-68
2023/10/29 05:35:29;;;;;;;;;2.00;1.00;;;;;16.11;100.00;99199.03;4978350;28;45209;-68
2023/10/29 05:37:55;;;;;;;;;5.33;1.00;;;;;16.07;100.00;99206.25;4977359;28;73955;-69
2023/10/29 05:40:20;;;;;;;;;2.00;1.00;;;;;16.08;100.00;99212.44;4960554;28;49076;-67
2023/10/29 05:42:45;;;;;;;;;4.00;0.00;;;;;16.07;100.00;99226.69;4977457;28;69594;-69
2023/10/29 05:45:11;;;;;;;;;1.00;1.00;;;;;16.06;100.00;99215.16;4977285;28;61972;-67
2023/10/29 05:47:36;;;;;;;;;1.00;0.33;;;;;16.06;100.00;99227.63;4976910;28;73860;-69
2023/10/29 05:50:04;;;;;;;;;2.33;0.00;;;;;16.04;100.00;99230.34;4977126;28;70081;-69
2023/10/29 05:52:29;;;;;;;;;2.00;0.00;;;;;16.03;100.00;99244.53;4978799;28;45368;-66
2023/10/29 05:54:55;;;;;;;;;0.00;0.00;;;;;16.03;100.00;99251.66;4978316;28;45493;-68
2023/10/29 05:57:21;;;;;;;;;3.00;1.00;;;;;16.04;100.00;99253.44;4978539;28;46386;-68
2023/10/29 05:59:46;;;;;;;;;3.67;0.00;;;;;16.01;100.00;99248.22;4958555;28;45439;-67
2023/10/29 06:02:12;;;;;;;;;1.00;1.00;;;;;15.98;100.00;99244.75;4977933;28;45436;-68
2023/10/29 06:04:37;;;;;;;;;2.67;1.00;;;;;15.95;100.00;99231.53;4959641;28;62237;-68
2023/10/29 06:07:02;;;;;;;;;5.67;0.00;;;;;15.95;100.00;99233.34;4977909;28;46226;-67
2023/10/29 06:09:28;;;;;;;;;4.33;2.00;;;;;15.89;100.00;99234.44;4977278;28;73488;-68
2023/10/29 06:11:53;;;;;;;;;5.00;0.67;;;;;15.91;100.00;99245.00;4977018;28;68469;-68
2023/10/29 06:14:18;;;;;;;;;2.00;1.00;;;;;15.89;100.00;99249.53;4977147;28;67595;-68
2023/10/29 06:16:44;;;;;;;;;4.00;1.00;;;;;15.91;100.00;99253.84;4959982;28;53395;-67
2023/10/29 06:19:09;;;;;;;;;3.00;2.00;;;;;15.90;100.00;99252.13;4978110;28;45587;-66
2023/10/29 06:21:34;;;;;;;;;0.00;0.00;;;;;15.89;100.00;99252.19;4976733;28;65949;-68
2023/10/29 06:24:00;;;;;;;;;6.33;0.33;;;;;15.90;100.00;99262.78;4977772;28;45559;-68
2023/10/29 06:26:25;;;;;;;;;2.00;1.00;;;;;15.90;100.00;99270.75;4959930;28;46563;-69
2023/10/29 06:28:51;;;;;;;;;1.00;0.00;;;;;15.89;100.00;99260.19;4977167;28;68635;-67
2023/10/29 06:31:16;;;;;;;;;4.33;0.67;;;;;15.88;100.00;99259.31;5151391;22;46136;-66
2023/10/29 06:33:42;;;;;;;;;3.00;2.00;;;;;15.91;100.00;99268.97;4973662;28;45510;-67
2023/10/29 06:36:08;;;;;;;;;2.67;0.00;;;;;15.90;100.00;99265.44;4964958;28;47026;-68
2023/10/29 06:38:33;;;;;;;;;2.00;1.00;;;;;15.90;100.00;99267.22;4969044;28;45446;-67
2023/10/29 06:40:59;;;;;;;;;1.00;1.00;;;;;15.90;100.00;99265.44;4972565;28;45374;-66
2023/10/29 06:43:24;;;;;;;;;4.33;0.00;;;;;15.90;100.00;99281.41;4973257;28;45639;-67
2023/10/29 06:45:49;;;;;;;;;3.00;0.00;;;;;15.90;100.00;99275.22;4966821;28;68671;-67
2023/10/29 06:48:15;;;;;;;;;3.67;0.00;;;;;15.90;100.00;99275.22;4976621;28;45732;-67
2023/10/29 06:50:43;;;;;;;;;3.33;0.00;;;;;15.92;100.00;99279.53;4967978;28;66712;-66
2023/10/29 06:53:09;;;;;;;;;5.00;2.00;;;;;15.91;100.00;99284.94;4976738;28;45559;-66
2023/10/29 06:55:37;;;;;;;;;2.33;0.00;;;;;15.89;100.00;99287.66;4972722;28;45595;-65
2023/10/29 06:58:03;;;;;;;;;1.67;1.00;;;;;15.88;100.00;99293.91;4969681;28;45462;-66
2023/10/29 07:00:29;;;;;;;;;4.67;0.00;;;;;15.88;100.00;99287.72;4975762;28;45309;-66
2023/10/29 07:02:55;;;;;;;;;1.33;0.00;;;;;15.86;100.00;99293.06;4972325;28;45442;-67
2023/10/29 07:05:20;;;;;;;;;1.00;1.00;;;;;15.86;100.00;99289.56;4970752;28;45712;-69
2023/10/29 07:07:47;;;;;;;;;1.00;1.00;;;;;15.86;100.00;99300.19;4971536;28;45419;-68
2023/10/29 07:10:12;;;;;;;;;2.33;1.00;;;;;15.85;100.00;99307.31;4970191;28;45518;-65
2023/10/29 07:12:38;;;;;;;;;2.00;2.00;;;;;15.87;100.00;99313.47;4971074;28;45657;-66
2023/10/29 07:15:04;;;;;;;;;2.00;0.00;;;;;15.87;100.00;99308.16;4968265;28;68839;-67
2023/10/29 07:17:29;;;;;;;;;2.00;1.00;;;;;15.90;100.00;99291.19;4972126;28;45849;-66
2023/10/29 07:19:54;;;;;;;;;2.67;1.00;;;;;15.95;100.00;99287.44;4971400;28;45425;-67
2023/10/29 07:22:20;;;;;;;;;2.67;1.00;;;;;16.01;100.00;99294.34;4987040;28;58653;-65
2023/10/29 07:24:45;;;;;;;;;3.33;1.00;;;;;16.07;100.00;99310.09;4966245;28;67702;-65
2023/10/29 07:27:10;;;;;;;;;3.67;1.00;;;;;16.11;100.00;99298.41;4969061;28;58501;-67
2023/10/29 07:29:36;;;;;;;;;5.00;0.00;;;;;16.17;100.00;99289.31;4971695;28;45426;-65
2023/10/29 07:32:01;;;;;;;;;3.00;2.00;;;;;16.22;100.00;99279.38;4972254;28;45399;-65
2023/10/29 07:34:26;;;;;;;;;1.33;0.00;;;;;16.30;100.00;99281.75;4976571;28;46865;-67
2023/10/29 07:36:52;;;;;;;;;2.67;1.33;;;;;16.36;100.00;99282.41;4975743;28;45423;-65
2023/10/29 07:39:17;;;;;;;;;6.00;0.00;;;;;16.43;100.00;99272.38;4975379;28;50811;-67
2023/10/29 07:41:43;;;;;;;;;3.00;0.00;;;;;16.46;100.00;99273.13;4975193;28;45519;-68
2023/10/29 07:44:08;;;;;;;;;2.00;1.00;;;;;16.51;100.00;99264.94;4976207;28;46345;-65
2023/10/29 07:46:33;;;;;;;;;3.67;1.00;;;;;16.57;100.00;99269.19;4975853;28;73809;-65
2023/10/29 07:48:59;;;;;;;;;1.00;1.00;;;;;16.61;100.00;99254.81;4974741;28;45332;-65
2023/10/29 07:51:24;;;;;;;;;3.00;1.00;;;;;16.61;100.00;99247.69;4975025;28;64999;-66
2023/10/29 07:53:50;;;;;;;;;4.00;1.00;;;;;16.64;100.00;99260.91;4975516;28;71372;-66
2023/10/29 07:56:15;;;;;;;;;1.67;1.00;;;;;16.66;100.00;99261.69;4976289;28;45630;-66
2023/10/29 07:58:41;;;;;;;;;2.00;1.00;;;;;16.71;100.00;99270.41;4976441;28;45406;-67
2023/10/29 08:01:10;;;;;;;;;3.67;0.33;;;;;16.72;100.00;99264.19;4975544;28;45496;-67
2023/10/29 08:03:36;;;;;;;;;2.00;1.00;;;;;16.75;100.00;99263.19;4975829;28;46802;-65
2023/10/29 08:06:02;;;;;;;;;2.67;1.00;;;;;16.77;100.00;99267.50;4972403;28;67573;-65
2023/10/29 08:08:28;;;;;;;;;4.00;0.67;;;;;16.78;100.00;99279.06;4976174;28;45429;-65
2023/10/29 08:10:53;;;;;;;;;2.67;1.00;;;;;16.76;100.00;99292.41;4973362;28;45187;-66
2023/10/29 08:13:19;;;;;;;;;4.67;1.00;;;;;16.76;100.00;99292.41;4973041;28;46802;-66
2023/10/29 08:15:44;;;;;;;;;4.67;1.00;;;;;16.75;100.00;99276.50;4966354;28;68521;-66
2023/10/29 08:18:10;;;;;;;;;2.67;1.00;;;;;16.75;100.00;99289.81;4971999;28;45611;-66
2023/10/29 08:20:35;;;;;;;;;4.00;0.33;;;;;16.73;100.00;99279.25;4970167;28;45483;-66
2023/10/29 08:23:00;;;;;;;;;3.00;2.00;;;;;16.72;100.00;99277.50;4966384;28;70682;-65
2023/10/29 08:25:26;;;;;;;;;1.00;1.00;;;;;16.72;100.00;99279.28;4967998;28;46352;-67
2023/10/29 08:27:51;;;;;;;;;1.00;1.00;;;;;16.70;100.00;99279.31;4968336;28;45502;-70
2023/10/29 08:30:17;;;;;;;;;5.00;1.00;;;;;16.72;100.00;99285.50;4969543;28;63838;-73
2023/10/29 08:32:43;;;;;;;;;2.67;1.00;;;;;16.70;100.00;99291.78;4966161;28;55876;-73
2023/10/29 08:35:09;;;;;;;;;3.00;1.00;;;;;16.67;100.00;99286.53;4974563;28;45522;-73
2023/10/29 08:37:35;;;;;;;;;4.00;0.67;;;;;16.63;100.00;99291.16;4972528;28;45765;-71
2023/10/29 08:40:01;;;;;;;;;3.00;2.00;;;;;16.62;100.00;99316.06;4967457;28;66912;-74
2023/10/29 08:42:29;;;;;;;;;3.00;1.00;;;;;16.61;100.00;99321.44;4971528;28;46123;-74
2023/10/29 08:44:56;;;;;;;;;1.00;1.00;;;;;16.60;100.00;99330.34;4971367;28;45570;-73
2023/10/29 08:47:22;;;;;;;;;2.33;1.00;;;;;16.58;100.00;99342.88;4980919;28;45830;-72
2023/10/29 08:49:47;;;;;;;;;1.00;1.00;;;;;16.51;100.00;99334.22;4968470;28;45506;-73
2023/10/29 08:52:14;;;;;;;;;3.67;1.00;;;;;16.41;100.00;99340.84;4969957;28;47486;-74
2023/10/29 08:54:39;;;;;;;;;1.00;0.00;;;;;16.29;100.00;99330.63;4970182;28;45579;-70
2023/10/29 08:57:05;;;;;;;;;4.67;2.00;;;;;16.28;100.00;99336.88;4966076;28;45653;-73
2023/10/29 08:59:31;;;;;;;;;1.00;1.00;;;;;16.24;100.00;99329.00;4974884;28;45543;-71
2023/10/29 09:01:56;;;;;;;;;2.00;1.00;;;;;16.24;100.00;99326.34;4966492;28;47876;-70
2023/10/29 09:04:22;;;;;;;;;3.00;1.00;;;;;16.28;100.00;99296.91;4973846;28;72529;-70
2023/10/29 09:06:48;;;;;;;;;0.67;0.00;;;;;16.31;100.00;99302.16;4974448;28;45304;-71
2023/10/29 09:09:13;;;;;;;;;2.00;0.00;;;;;16.36;100.00;99308.19;4972773;28;45443;-69
2023/10/29 09:11:39;;;;;;;;;0.00;0.00;;;;;16.40;100.00;99315.97;4973879;28;45711;-69
2023/10/29 09:14:07;;;;;;;;;1.67;0.00;;;;;16.42;100.00;99297.28;4972054;28;45422;-71
2023/10/29 09:16:32;;;;;;;;;2.00;0.00;;;;;16.50;100.00;99280.06;4972763;28;45577;-69
2023/10/29 09:18:57;;;;;;;;;0.67;0.00;;;;;16.52;100.00;99271.16;4974331;28;63442;-68
2023/10/29 09:21:23;;;;;;;;;2.00;1.00;;;;;16.56;100.00;99264.78;4974214;28;45809;-68
2023/10/29 09:23:48;;;;;;;;;3.67;0.00;;;;;16.57;100.00;99248.75;4974565;28;45443;-68
2023/10/29 09:26:13;;;;;;;;;1.00;1.00;;;;;16.58;100.00;99245.16;4989250;28;67236;-71
2023/10/29 09:28:39;;;;;;;;;3.00;0.00;;;;;16.59;100.00;99270.88;4991266;28;65584;-69
2023/10/29 09:31:04;;;;;;;;;0.00;0.00;;;;;16.62;100.00;99268.09;4973434;28;74243;-69
2023/10/29 09:33:29;;;;;;;;;0.67;0.67;;;;;16.65;100.00;99237.78;4973229;28;65792;-71
2023/10/29 09:35:55;;;;;;;;;0.00;0.00;;;;;16.70;100.00;99236.66;4969387;28;45557;-71
2023/10/29 09:38:20;;;;;;;;;3.00;0.00;;;;;16.75;100.00;99269.38;4967202;28;62402;-67
2023/10/29 09:40:48;;;;;;;;;0.00;0.00;;;;;16.77;100.00;99280.81;4967925;28;46732;-69
2023/10/29 09:43:15;;;;;;;;;0.67;0.33;;;;;16.85;100.00;99291.22;4967579;28;45546;-70
2023/10/29 09:45:45;;;;;;;;;0.00;0.00;;;;;16.88;100.00;99284.88;4981724;28;45583;-67
2023/10/29 09:48:12;;;;;;;;;0.00;0.00;;;;;16.92;100.00;99275.81;4967080;28;45526;-68
2023/10/29 09:50:37;;;;;;;;;2.00;0.33;;;;;16.92;100.00;99265.16;4969124;28;45609;-68
2023/10/29 09:53:03;;;;;;;;;1.00;0.00;;;;;16.89;100.00;99278.63;4965955;28;71502;-69
2023/10/29 09:55:29;;;;;;;;;0.67;0.00;;;;;16.87;100.00;99283.16;4967512;28;45952;-69
2023/10/29 09:57:54;;;;;;;;;1.00;0.00;;;;;16.88;100.00;99268.88;4981512;28;56153;-68
2023/10/29 10:00:20;;;;;;;;;3.00;0.00;;;;;16.93;100.00;99258.91;4967228;28;72697;-70
2023/10/29 10:02:53;;;;;;;;;1.67;0.00;;;;;16.95;100.00;99259.72;4967432;28;67437;-68
2023/10/29 10:05:20;;;;;;;;;1.67;0.00;;;;;17.00;100.00;99261.28;4969653;28;45532;-69
2023/10/29 10:07:45;;;;;;;;;0.00;0.00;;;;;17.05;100.00;99252.22;4967077;28;45645;-69
2023/10/29 10:10:11;;;;;;;;;0.00;0.00;;;;;17.11;100.00;99258.16;4970071;28;46569;-69
2023/10/29 10:12:47;;;;;;;;;0.00;0.00;;;;;17.19;100.00;99272.03;4972591;28;72816;-69
2023/10/29 10:15:16;;;;;;;;;1.00;0.00;;;;;17.26;100.00;99262.88;4973520;28;45442;-68
2023/10/29 10:17:51;;;;;;;;;1.00;0.00;;;;;17.35;100.00;99261.59;4969301;28;45311;-68
2023/10/29 10:20:20;;;;;;;;;0.00;0.00;;;;;17.44;100.00;99258.56;4974246;28;46564;-69
2023/10/29 10:22:55;;;;;;;;;2.00;0.00;;;;;17.52;100.00;99258.22;4976008;28;45513;-69
2023/10/29 10:25:23;;;;;;;;;0.00;0.00;;;;;17.54;100.00;99253.72;4973787;28;45540;-68
2023/10/29 10:27:49;;;;;;;;;0.00;0.00;;;;;17.48;100.00;99217.47;4973533;28;46762;-69
2023/10/29 10:30:38;;;;;;;;;0.33;0.00;;;;;17.43;100.00;99230.16;4972418;28;46726;-68
2023/10/29 10:33:19;;;;;;;;;1.00;0.00;;;;;17.43;100.00;99219.47;4975867;28;45584;-69
2023/10/29 10:35:54;;;;;;;;;1.00;0.00;;;;;17.44;100.00;99225.69;4991625;28;45510;-71
2023/10/29 10:38:19;;;;;;;;;0.00;0.00;;;;;17.43;100.00;99214.13;4977241;28;45493;-71
2023/10/29 10:40:46;;;;;;;;;0.67;0.00;;;;;17.50;100.00;99230.75;4971947;28;59258;-69
2023/10/29 10:43:17;;;;;;;;;2.00;0.00;;;;;17.49;100.00;99221.88;4975470;28;45556;-70
2023/10/29 10:45:43;;;;;;;;;0.00;0.00;;;;;17.49;100.00;99221.88;4976646;28;45351;-69
2023/10/29 10:48:08;;;;;;;;;3.00;0.00;;;;;17.47;100.00;99234.44;4975036;28;45670;-68
2023/10/29 10:50:35;;;;;;;;;2.33;0.00;;;;;17.46;100.00;99229.13;4977421;28;46785;-70
2023/10/29 10:53:01;;;;;;;;;0.00;0.00;;;;;17.39;100.00;99225.88;4978750;28;45543;-68
2023/10/29 10:55:27;;;;;;;;;1.00;0.00;;;;;17.36;100.00;99239.31;4976234;28;45466;-69
2023/10/29 10:57:54;;;;;;;;;0.00;0.00;;;;;17.31;100.00;99220.00;4974385;28;45501;-70
2023/10/29 11:00:19;;;;;;;;;0.00;0.00;;;;;17.38;100.00;99226.81;4974738;28;75321;-70
2023/10/29 11:02:46;;;;;;;;;1.33;0.00;;;;;17.42;100.00;99248.91;4991702;28;45360;-72
2023/10/29 11:05:13;;;;;;;;;0.00;0.00;;;;;17.41;100.00;99234.66;4971958;28;45394;-73
2023/10/29 11:07:40;;;;;;;;;1.00;0.00;;;;;17.44;100.00;99223.00;4956207;28;45355;-73
2023/10/29 11:10:08;;;;;;;;;1.33;0.00;;;;;17.47;100.00;99229.09;4973456;28;47075;-70
2023/10/29 11:12:34;;;;;;;;;0.00;0.00;;;;;17.46;100.00;99224.66;4976091;28;45390;-72
2023/10/29 11:15:16;;;;;;;;;1.67;0.00;;;;;17.50;100.00;99233.41;4972075;28;45594;-73
2023/10/29 11:17:51;;;;;;;;;0.00;0.00;;;;;17.61;100.00;99223.13;4975637;28;45629;-68